sensor_id;sensor_type;location;lat;lon;timestamp;P1;durP1;ratioP1;P2;durP2;ratioP2
41685;SDS011;27370;42.764;23.432;2023-11-22T00:00:07;9.75;;;4.90;;
41685;SDS011;27370;42.764;23.432;2023-11-22T00:02:35;11.75;;;5.53;;
41685;SDS011;27370;42.764;23.432;2023-11-22T00:05:00;12.05;;;5.60;;
41685;SDS011;27370;42.764;23.432;2023-11-22T00:07:26;12.77;;;6.03;;
41685;SDS011;27370;42.764;23.432;2023-11-22T00:09:55;11.82;;;6.00;;
41685;SDS011;27370;42.764;23.432;2023-11-22T00:12:21;14.27;;;7.60;;
41685;SDS011;27370;42.764;23.432;2023-11-22T00:14:48;20.75;;;10.35;;
41685;SDS011;27370;42.764;23.432;2023-11-22T00:17:14;33.72;;;15.23;;
41685;SDS011;27370;42.764;23.432;2023-11-22T00:19:39;24.13;;;11.52;;
41685;SDS011;27370;42.764;23.432;2023-11-22T00:22:05;22.40;;;9.80;;
41685;SDS011;27370;42.764;23.432;2023-11-22T00:24:38;17.88;;;9.15;;
41685;SDS011;27370;42.764;23.432;2023-11-22T00:27:05;14.25;;;6.97;;
41685;SDS011;27370;42.764;23.432;2023-11-22T00:29:31;18.85;;;9.25;;
41685;SDS011;27370;42.764;23.432;2023-11-22T00:31:57;14.05;;;7.60;;
41685;SDS011;27370;42.764;23.432;2023-11-22T00:34:24;10.25;;;5.32;;
41685;SDS011;27370;42.764;23.432;2023-11-22T00:36:50;11.63;;;5.35;;
41685;SDS011;27370;42.764;23.432;2023-11-22T00:39:18;13.93;;;7.07;;
41685;SDS011;27370;42.764;23.432;2023-11-22T00:41:44;17.27;;;7.90;;
41685;SDS011;27370;42.764;23.432;2023-11-22T00:44:10;12.55;;;5.75;;
41685;SDS011;27370;42.764;23.432;2023-11-22T00:46:36;12.48;;;6.53;;
41685;SDS011;27370;42.764;23.432;2023-11-22T00:49:05;15.43;;;7.13;;
41685;SDS011;27370;42.764;23.432;2023-11-22T00:51:31;22.25;;;12.00;;
41685;SDS011;27370;42.764;23.432;2023-11-22T00:54:00;14.52;;;7.35;;
41685;SDS011;27370;42.764;23.432;2023-11-22T00:58:53;21.70;;;11.40;;
41685;SDS011;27370;42.764;23.432;2023-11-22T01:01:22;21.83;;;11.45;;
41685;SDS011;27370;42.764;23.432;2023-11-22T01:03:48;20.03;;;10.77;;
41685;SDS011;27370;42.764;23.432;2023-11-22T01:06:14;20.27;;;10.13;;
41685;SDS011;27370;42.764;23.432;2023-11-22T01:08:39;17.10;;;9.48;;
41685;SDS011;27370;42.764;23.432;2023-11-22T01:11:05;14.80;;;8.55;;
41685;SDS011;27370;42.764;23.432;2023-11-22T01:13:32;16.48;;;8.75;;
41685;SDS011;27370;42.764;23.432;2023-11-22T01:16:09;15.77;;;8.68;;
41685;SDS011;27370;42.764;23.432;2023-11-22T01:18:35;14.82;;;8.85;;
41685;SDS011;27370;42.764;23.432;2023-11-22T01:21:02;15.70;;;8.63;;
41685;SDS011;27370;42.764;23.432;2023-11-22T01:23:29;19.35;;;9.82;;
41685;SDS011;27370;42.764;23.432;2023-11-22T01:25:57;16.70;;;9.52;;
41685;SDS011;27370;42.764;23.432;2023-11-22T01:28:26;32.08;;;17.77;;
41685;SDS011;27370;42.764;23.432;2023-11-22T01:30:55;28.35;;;16.05;;
41685;SDS011;27370;42.764;23.432;2023-11-22T01:33:23;26.55;;;15.30;;
41685;SDS011;27370;42.764;23.432;2023-11-22T01:35:49;21.50;;;13.55;;
41685;SDS011;27370;42.764;23.432;2023-11-22T01:38:17;27.95;;;17.80;;
41685;SDS011;27370;42.764;23.432;2023-11-22T01:40:44;25.98;;;17.00;;
41685;SDS011;27370;42.764;23.432;2023-11-22T01:43:14;24.83;;;16.48;;
41685;SDS011;27370;42.764;23.432;2023-11-22T01:45:41;25.17;;;15.32;;
41685;SDS011;27370;42.764;23.432;2023-11-22T01:48:07;24.75;;;15.35;;
41685;SDS011;27370;42.764;23.432;2023-11-22T01:50:36;24.33;;;15.73;;
41685;SDS011;27370;42.764;23.432;2023-11-22T01:53:03;27.00;;;17.58;;
41685;SDS011;27370;42.764;23.432;2023-11-22T01:55:29;52.22;;;27.52;;
41685;SDS011;27370;42.764;23.432;2023-11-22T01:57:55;65.05;;;34.92;;
41685;SDS011;27370;42.764;23.432;2023-11-22T02:00:22;53.38;;;30.05;;
41685;SDS011;27370;42.764;23.432;2023-11-22T02:02:50;45.72;;;25.33;;
41685;SDS011;27370;42.764;23.432;2023-11-22T02:05:16;32.13;;;19.30;;
41685;SDS011;27370;42.764;23.432;2023-11-22T02:07:41;24.58;;;14.05;;
41685;SDS011;27370;42.764;23.432;2023-11-22T02:10:07;21.08;;;13.63;;
41685;SDS011;27370;42.764;23.432;2023-11-22T02:12:33;22.80;;;14.15;;
41685;SDS011;27370;42.764;23.432;2023-11-22T02:14:59;23.65;;;13.75;;
41685;SDS011;27370;42.764;23.432;2023-11-22T02:17:24;25.25;;;15.40;;
41685;SDS011;27370;42.764;23.432;2023-11-22T02:19:51;23.90;;;15.05;;
41685;SDS011;27370;42.764;23.432;2023-11-22T02:22:17;19.45;;;12.25;;
41685;SDS011;27370;42.764;23.432;2023-11-22T02:24:43;20.63;;;12.55;;
41685;SDS011;27370;42.764;23.432;2023-11-22T02:27:09;18.75;;;12.02;;
41685;SDS011;27370;42.764;23.432;2023-11-22T02:29:35;19.98;;;12.73;;
41685;SDS011;27370;42.764;23.432;2023-11-22T02:32:01;21.48;;;12.63;;
41685;SDS011;27370;42.764;23.432;2023-11-22T02:34:26;20.13;;;11.98;;
41685;SDS011;27370;42.764;23.432;2023-11-22T02:36:52;20.08;;;11.98;;
41685;SDS011;27370;42.764;23.432;2023-11-22T02:39:17;21.33;;;12.77;;
41685;SDS011;27370;42.764;23.432;2023-11-22T02:41:44;19.55;;;12.57;;
41685;SDS011;27370;42.764;23.432;2023-11-22T02:44:10;23.38;;;13.38;;
41685;SDS011;27370;42.764;23.432;2023-11-22T02:46:36;27.48;;;15.90;;
41685;SDS011;27370;42.764;23.432;2023-11-22T02:49:01;25.73;;;17.30;;
41685;SDS011;27370;42.764;23.432;2023-11-22T02:51:27;24.52;;;15.60;;
41685;SDS011;27370;42.764;23.432;2023-11-22T02:53:53;26.77;;;16.52;;
41685;SDS011;27370;42.764;23.432;2023-11-22T02:56:19;28.30;;;15.10;;
41685;SDS011;27370;42.764;23.432;2023-11-22T02:58:44;25.15;;;15.55;;
41685;SDS011;27370;42.764;23.432;2023-11-22T03:01:11;24.60;;;14.88;;
41685;SDS011;27370;42.764;23.432;2023-11-22T03:03:36;21.55;;;13.60;;
41685;SDS011;27370;42.764;23.432;2023-11-22T03:06:03;19.10;;;12.25;;
41685;SDS011;27370;42.764;23.432;2023-11-22T03:08:29;20.05;;;12.35;;
41685;SDS011;27370;42.764;23.432;2023-11-22T03:10:55;18.60;;;11.68;;
41685;SDS011;27370;42.764;23.432;2023-11-22T03:13:21;18.60;;;11.45;;
41685;SDS011;27370;42.764;23.432;2023-11-22T03:15:47;46.53;;;34.70;;
41685;SDS011;27370;42.764;23.432;2023-11-22T03:18:13;64.60;;;54.92;;
41685;SDS011;27370;42.764;23.432;2023-11-22T03:20:39;37.22;;;29.95;;
41685;SDS011;27370;42.764;23.432;2023-11-22T03:23:04;25.52;;;18.17;;
41685;SDS011;27370;42.764;23.432;2023-11-22T03:25:30;24.90;;;19.80;;
41685;SDS011;27370;42.764;23.432;2023-11-22T03:27:56;19.35;;;13.15;;
41685;SDS011;27370;42.764;23.432;2023-11-22T03:30:22;23.50;;;16.75;;
41685;SDS011;27370;42.764;23.432;2023-11-22T03:32:48;56.97;;;23.13;;
41685;SDS011;27370;42.764;23.432;2023-11-22T03:35:16;42.30;;;20.40;;
41685;SDS011;27370;42.764;23.432;2023-11-22T03:37:42;36.45;;;19.20;;
41685;SDS011;27370;42.764;23.432;2023-11-22T03:40:07;34.40;;;21.27;;
41685;SDS011;27370;42.764;23.432;2023-11-22T03:42:38;34.60;;;20.23;;
41685;SDS011;27370;42.764;23.432;2023-11-22T03:45:04;31.98;;;19.30;;
41685;SDS011;27370;42.764;23.432;2023-11-22T03:47:31;33.45;;;20.08;;
41685;SDS011;27370;42.764;23.432;2023-11-22T03:49:58;28.80;;;17.80;;
41685;SDS011;27370;42.764;23.432;2023-11-22T03:52:24;27.80;;;18.33;;
41685;SDS011;27370;42.764;23.432;2023-11-22T03:54:52;30.23;;;19.42;;
41685;SDS011;27370;42.764;23.432;2023-11-22T03:57:17;36.00;;;20.45;;
41685;SDS011;27370;42.764;23.432;2023-11-22T03:59:43;34.92;;;20.38;;
41685;SDS011;27370;42.764;23.432;2023-11-22T04:02:09;44.65;;;24.25;;
41685;SDS011;27370;42.764;23.432;2023-11-22T04:04:36;45.72;;;22.88;;
41685;SDS011;27370;42.764;23.432;2023-11-22T04:07:02;44.97;;;22.27;;
41685;SDS011;27370;42.764;23.432;2023-11-22T04:09:28;45.30;;;20.85;;
41685;SDS011;27370;42.764;23.432;2023-11-22T04:11:54;28.50;;;16.77;;
41685;SDS011;27370;42.764;23.432;2023-11-22T04:14:20;27.60;;;15.75;;
41685;SDS011;27370;42.764;23.432;2023-11-22T04:16:46;33.78;;;17.50;;
41685;SDS011;27370;42.764;23.432;2023-11-22T04:19:12;30.25;;;16.70;;
41685;SDS011;27370;42.764;23.432;2023-11-22T04:21:37;27.75;;;15.05;;
41685;SDS011;27370;42.764;23.432;2023-11-22T04:24:03;31.85;;;16.52;;
41685;SDS011;27370;42.764;23.432;2023-11-22T04:26:29;37.55;;;17.15;;
41685;SDS011;27370;42.764;23.432;2023-11-22T04:28:54;52.30;;;23.98;;
41685;SDS011;27370;42.764;23.432;2023-11-22T04:31:20;44.25;;;21.67;;
41685;SDS011;27370;42.764;23.432;2023-11-22T04:33:45;48.35;;;21.40;;
41685;SDS011;27370;42.764;23.432;2023-11-22T04:36:11;48.70;;;20.67;;
41685;SDS011;27370;42.764;23.432;2023-11-22T04:38:37;37.90;;;20.10;;
41685;SDS011;27370;42.764;23.432;2023-11-22T04:41:03;35.92;;;19.90;;
41685;SDS011;27370;42.764;23.432;2023-11-22T04:43:28;36.08;;;19.88;;
41685;SDS011;27370;42.764;23.432;2023-11-22T04:45:54;34.15;;;22.88;;
41685;SDS011;27370;42.764;23.432;2023-11-22T04:48:20;43.92;;;28.95;;
41685;SDS011;27370;42.764;23.432;2023-11-22T04:50:45;39.88;;;22.75;;
41685;SDS011;27370;42.764;23.432;2023-11-22T04:53:11;46.05;;;25.95;;
41685;SDS011;27370;42.764;23.432;2023-11-22T04:55:36;30.40;;;20.65;;
41685;SDS011;27370;42.764;23.432;2023-11-22T04:58:02;28.75;;;19.50;;
41685;SDS011;27370;42.764;23.432;2023-11-22T05:00:28;26.27;;;18.65;;
41685;SDS011;27370;42.764;23.432;2023-11-22T05:02:54;26.38;;;18.17;;
41685;SDS011;27370;42.764;23.432;2023-11-22T05:05:19;29.35;;;21.75;;
41685;SDS011;27370;42.764;23.432;2023-11-22T05:07:46;32.40;;;22.88;;
41685;SDS011;27370;42.764;23.432;2023-11-22T05:10:12;30.92;;;22.67;;
41685;SDS011;27370;42.764;23.432;2023-11-22T05:12:38;36.03;;;25.95;;
41685;SDS011;27370;42.764;23.432;2023-11-22T05:15:04;33.17;;;25.55;;
41685;SDS011;27370;42.764;23.432;2023-11-22T05:17:30;35.40;;;27.13;;
41685;SDS011;27370;42.764;23.432;2023-11-22T05:19:55;36.60;;;26.65;;
41685;SDS011;27370;42.764;23.432;2023-11-22T05:22:21;29.63;;;22.02;;
41685;SDS011;27370;42.764;23.432;2023-11-22T05:24:47;31.52;;;22.38;;
41685;SDS011;27370;42.764;23.432;2023-11-22T05:27:13;30.70;;;23.05;;
41685;SDS011;27370;42.764;23.432;2023-11-22T05:29:39;33.72;;;25.13;;
41685;SDS011;27370;42.764;23.432;2023-11-22T05:32:05;31.50;;;22.95;;
41685;SDS011;27370;42.764;23.432;2023-11-22T05:34:31;30.63;;;22.08;;
41685;SDS011;27370;42.764;23.432;2023-11-22T05:36:58;28.77;;;21.77;;
41685;SDS011;27370;42.764;23.432;2023-11-22T05:39:23;32.67;;;22.63;;
41685;SDS011;27370;42.764;23.432;2023-11-22T05:41:50;26.75;;;20.20;;
41685;SDS011;27370;42.764;23.432;2023-11-22T05:44:16;26.95;;;20.05;;
41685;SDS011;27370;42.764;23.432;2023-11-22T05:46:41;30.40;;;20.67;;
41685;SDS011;27370;42.764;23.432;2023-11-22T05:49:07;27.58;;;20.23;;
41685;SDS011;27370;42.764;23.432;2023-11-22T05:51:32;27.05;;;19.88;;
41685;SDS011;27370;42.764;23.432;2023-11-22T05:53:59;27.77;;;19.23;;
41685;SDS011;27370;42.764;23.432;2023-11-22T05:56:25;27.92;;;19.85;;
41685;SDS011;27370;42.764;23.432;2023-11-22T05:58:51;30.40;;;19.00;;
41685;SDS011;27370;42.764;23.432;2023-11-22T06:01:16;26.67;;;19.63;;
41685;SDS011;27370;42.764;23.432;2023-11-22T06:03:42;27.15;;;18.55;;
41685;SDS011;27370;42.764;23.432;2023-11-22T06:06:07;29.90;;;19.60;;
41685;SDS011;27370;42.764;23.432;2023-11-22T06:08:33;26.98;;;18.77;;
41685;SDS011;27370;42.764;23.432;2023-11-22T06:10:59;29.65;;;18.88;;
41685;SDS011;27370;42.764;23.432;2023-11-22T06:13:25;30.48;;;18.83;;
41685;SDS011;27370;42.764;23.432;2023-11-22T06:15:51;27.55;;;18.88;;
41685;SDS011;27370;42.764;23.432;2023-11-22T06:18:17;77.60;;;36.25;;
41685;SDS011;27370;42.764;23.432;2023-11-22T06:20:44;50.05;;;28.80;;
41685;SDS011;27370;42.764;23.432;2023-11-22T06:23:10;36.05;;;21.15;;
41685;SDS011;27370;42.764;23.432;2023-11-22T06:25:35;25.48;;;17.60;;
41685;SDS011;27370;42.764;23.432;2023-11-22T06:28:01;25.55;;;17.30;;
41685;SDS011;27370;42.764;23.432;2023-11-22T06:30:30;28.23;;;19.37;;
41685;SDS011;27370;42.764;23.432;2023-11-22T06:32:55;27.42;;;18.85;;
41685;SDS011;27370;42.764;23.432;2023-11-22T06:35:22;29.58;;;19.80;;
41685;SDS011;27370;42.764;23.432;2023-11-22T06:37:47;22.17;;;16.48;;
41685;SDS011;27370;42.764;23.432;2023-11-22T06:40:13;20.50;;;15.95;;
41685;SDS011;27370;42.764;23.432;2023-11-22T06:42:42;23.98;;;17.35;;
41685;SDS011;27370;42.764;23.432;2023-11-22T06:45:08;26.60;;;19.85;;
41685;SDS011;27370;42.764;23.432;2023-11-22T06:47:41;35.55;;;19.73;;
41685;SDS011;27370;42.764;23.432;2023-11-22T06:50:09;39.63;;;22.42;;
41685;SDS011;27370;42.764;23.432;2023-11-22T06:52:36;31.27;;;19.10;;
41685;SDS011;27370;42.764;23.432;2023-11-22T06:55:03;32.17;;;21.65;;
41685;SDS011;27370;42.764;23.432;2023-11-22T06:57:30;36.50;;;25.52;;
41685;SDS011;27370;42.764;23.432;2023-11-22T06:59:56;44.95;;;30.52;;
41685;SDS011;27370;42.764;23.432;2023-11-22T07:02:22;54.53;;;36.42;;
41685;SDS011;27370;42.764;23.432;2023-11-22T07:04:48;56.38;;;37.33;;
41685;SDS011;27370;42.764;23.432;2023-11-22T07:07:13;49.60;;;34.03;;
41685;SDS011;27370;42.764;23.432;2023-11-22T07:09:43;45.15;;;30.42;;
41685;SDS011;27370;42.764;23.432;2023-11-22T07:12:09;40.90;;;29.25;;
41685;SDS011;27370;42.764;23.432;2023-11-22T07:14:35;43.58;;;30.23;;
41685;SDS011;27370;42.764;23.432;2023-11-22T07:17:02;44.15;;;31.00;;
41685;SDS011;27370;42.764;23.432;2023-11-22T07:19:28;43.15;;;31.35;;
41685;SDS011;27370;42.764;23.432;2023-11-22T07:21:54;44.67;;;32.28;;
41685;SDS011;27370;42.764;23.432;2023-11-22T07:24:20;41.35;;;30.17;;
41685;SDS011;27370;42.764;23.432;2023-11-22T07:26:46;38.88;;;27.88;;
41685;SDS011;27370;42.764;23.432;2023-11-22T07:29:12;40.38;;;29.08;;
41685;SDS011;27370;42.764;23.432;2023-11-22T07:31:38;43.00;;;30.45;;
41685;SDS011;27370;42.764;23.432;2023-11-22T07:34:04;38.20;;;27.08;;
41685;SDS011;27370;42.764;23.432;2023-11-22T07:36:31;44.15;;;29.10;;
41685;SDS011;27370;42.764;23.432;2023-11-22T07:38:57;43.95;;;31.08;;
41685;SDS011;27370;42.764;23.432;2023-11-22T07:41:22;43.08;;;32.85;;
41685;SDS011;27370;42.764;23.432;2023-11-22T07:43:48;45.38;;;31.88;;
41685;SDS011;27370;42.764;23.432;2023-11-22T07:46:14;41.50;;;29.83;;
41685;SDS011;27370;42.764;23.432;2023-11-22T07:48:42;40.55;;;29.00;;
41685;SDS011;27370;42.764;23.432;2023-11-22T07:51:08;41.90;;;30.42;;
41685;SDS011;27370;42.764;23.432;2023-11-22T07:53:35;38.08;;;27.27;;
41685;SDS011;27370;42.764;23.432;2023-11-22T07:56:01;43.10;;;28.63;;
41685;SDS011;27370;42.764;23.432;2023-11-22T07:58:30;36.08;;;26.50;;
41685;SDS011;27370;42.764;23.432;2023-11-22T08:00:59;36.93;;;27.97;;
41685;SDS011;27370;42.764;23.432;2023-11-22T08:03:24;50.63;;;34.10;;
41685;SDS011;27370;42.764;23.432;2023-11-22T08:05:51;50.50;;;34.08;;
41685;SDS011;27370;42.764;23.432;2023-11-22T08:08:19;45.22;;;34.42;;
41685;SDS011;27370;42.764;23.432;2023-11-22T08:10:45;56.88;;;39.92;;
41685;SDS011;27370;42.764;23.432;2023-11-22T08:13:12;62.30;;;41.40;;
41685;SDS011;27370;42.764;23.432;2023-11-22T08:15:38;66.28;;;40.65;;
41685;SDS011;27370;42.764;23.432;2023-11-22T08:18:04;56.72;;;39.05;;
41685;SDS011;27370;42.764;23.432;2023-11-22T08:20:30;52.38;;;37.05;;
41685;SDS011;27370;42.764;23.432;2023-11-22T08:22:56;45.00;;;34.58;;
41685;SDS011;27370;42.764;23.432;2023-11-22T08:25:22;43.40;;;30.70;;
41685;SDS011;27370;42.764;23.432;2023-11-22T08:27:48;39.50;;;28.80;;
41685;SDS011;27370;42.764;23.432;2023-11-22T08:30:14;41.63;;;29.50;;
41685;SDS011;27370;42.764;23.432;2023-11-22T08:32:47;54.80;;;39.20;;
41685;SDS011;27370;42.764;23.432;2023-11-22T08:35:18;45.78;;;33.03;;
41685;SDS011;27370;42.764;23.432;2023-11-22T08:37:47;45.58;;;32.45;;
41685;SDS011;27370;42.764;23.432;2023-11-22T08:40:12;55.83;;;36.63;;
41685;SDS011;27370;42.764;23.432;2023-11-22T08:42:41;50.50;;;35.63;;
41685;SDS011;27370;42.764;23.432;2023-11-22T08:45:07;49.42;;;34.72;;
41685;SDS011;27370;42.764;23.432;2023-11-22T08:47:35;49.67;;;36.92;;
41685;SDS011;27370;42.764;23.432;2023-11-22T08:50:01;49.47;;;36.08;;
41685;SDS011;27370;42.764;23.432;2023-11-22T08:52:28;46.28;;;32.28;;
41685;SDS011;27370;42.764;23.432;2023-11-22T08:54:56;50.08;;;34.58;;
41685;SDS011;27370;42.764;23.432;2023-11-22T08:57:22;51.88;;;35.53;;
41685;SDS011;27370;42.764;23.432;2023-11-22T08:59:48;50.55;;;36.00;;
41685;SDS011;27370;42.764;23.432;2023-11-22T09:02:14;54.40;;;38.33;;
41685;SDS011;27370;42.764;23.432;2023-11-22T09:04:41;52.40;;;37.03;;
41685;SDS011;27370;42.764;23.432;2023-11-22T09:07:07;53.15;;;37.28;;
41685;SDS011;27370;42.764;23.432;2023-11-22T09:09:33;58.10;;;39.45;;
41685;SDS011;27370;42.764;23.432;2023-11-22T09:12:00;50.45;;;37.05;;
41685;SDS011;27370;42.764;23.432;2023-11-22T09:14:26;47.13;;;33.22;;
41685;SDS011;27370;42.764;23.432;2023-11-22T09:16:52;45.70;;;33.10;;
41685;SDS011;27370;42.764;23.432;2023-11-22T09:19:24;111.30;;;72.55;;
41685;SDS011;27370;42.764;23.432;2023-11-22T09:24:15;69.00;;;46.25;;
41685;SDS011;27370;42.764;23.432;2023-11-22T09:26:42;53.63;;;38.40;;
41685;SDS011;27370;42.764;23.432;2023-11-22T09:29:09;52.72;;;37.15;;
41685;SDS011;27370;42.764;23.432;2023-11-22T09:31:39;55.80;;;37.85;;
41685;SDS011;27370;42.764;23.432;2023-11-22T09:34:07;49.85;;;37.72;;
41685;SDS011;27370;42.764;23.432;2023-11-22T09:36:34;58.92;;;38.08;;
41685;SDS011;27370;42.764;23.432;2023-11-22T09:39:00;49.95;;;37.00;;
41685;SDS011;27370;42.764;23.432;2023-11-22T09:41:28;44.13;;;32.33;;
41685;SDS011;27370;42.764;23.432;2023-11-22T09:43:54;43.55;;;30.77;;
41685;SDS011;27370;42.764;23.432;2023-11-22T09:46:22;39.70;;;29.15;;
41685;SDS011;27370;42.764;23.432;2023-11-22T09:48:49;33.67;;;24.85;;
41685;SDS011;27370;42.764;23.432;2023-11-22T09:51:23;33.45;;;24.52;;
41685;SDS011;27370;42.764;23.432;2023-11-22T09:53:58;33.38;;;25.20;;
41685;SDS011;27370;42.764;23.432;2023-11-22T09:56:26;30.90;;;22.48;;
41685;SDS011;27370;42.764;23.432;2023-11-22T09:58:54;32.67;;;23.00;;
41685;SDS011;27370;42.764;23.432;2023-11-22T10:01:21;36.53;;;24.38;;
41685;SDS011;27370;42.764;23.432;2023-11-22T10:03:48;36.92;;;24.83;;
41685;SDS011;27370;42.764;23.432;2023-11-22T10:06:14;35.05;;;25.67;;
41685;SDS011;27370;42.764;23.432;2023-11-22T10:08:43;36.72;;;26.95;;
41685;SDS011;27370;42.764;23.432;2023-11-22T10:11:12;34.33;;;26.98;;
41685;SDS011;27370;42.764;23.432;2023-11-22T10:13:42;38.00;;;26.95;;
41685;SDS011;27370;42.764;23.432;2023-11-22T10:16:11;38.58;;;26.30;;
41685;SDS011;27370;42.764;23.432;2023-11-22T10:18:43;41.38;;;29.17;;
41685;SDS011;27370;42.764;23.432;2023-11-22T10:21:21;35.65;;;25.85;;
41685;SDS011;27370;42.764;23.432;2023-11-22T10:23:55;62.00;;;39.13;;
41685;SDS011;27370;42.764;23.432;2023-11-22T10:26:23;40.10;;;29.05;;
41685;SDS011;27370;42.764;23.432;2023-11-22T10:28:53;69.20;;;32.70;;
41685;SDS011;27370;42.764;23.432;2023-11-22T10:31:20;39.67;;;27.80;;
41685;SDS011;27370;42.764;23.432;2023-11-22T10:33:47;34.70;;;26.23;;
41685;SDS011;27370;42.764;23.432;2023-11-22T10:36:13;37.75;;;28.33;;
41685;SDS011;27370;42.764;23.432;2023-11-22T10:38:40;45.33;;;30.63;;
41685;SDS011;27370;42.764;23.432;2023-11-22T10:41:07;42.83;;;31.80;;
41685;SDS011;27370;42.764;23.432;2023-11-22T10:43:37;44.90;;;33.55;;
41685;SDS011;27370;42.764;23.432;2023-11-22T10:46:03;39.67;;;30.42;;
41685;SDS011;27370;42.764;23.432;2023-11-22T10:48:35;49.55;;;35.47;;
41685;SDS011;27370;42.764;23.432;2023-11-22T10:51:01;50.13;;;35.90;;
41685;SDS011;27370;42.764;23.432;2023-11-22T10:53:33;36.88;;;27.20;;
41685;SDS011;27370;42.764;23.432;2023-11-22T10:56:04;36.38;;;26.60;;
41685;SDS011;27370;42.764;23.432;2023-11-22T10:58:38;35.58;;;26.30;;
41685;SDS011;27370;42.764;23.432;2023-11-22T11:01:14;38.75;;;27.75;;
41685;SDS011;27370;42.764;23.432;2023-11-22T11:03:42;40.35;;;28.45;;
41685;SDS011;27370;42.764;23.432;2023-11-22T11:06:14;37.00;;;27.02;;
41685;SDS011;27370;42.764;23.432;2023-11-22T11:08:44;40.25;;;29.65;;
41685;SDS011;27370;42.764;23.432;2023-11-22T11:11:11;40.42;;;31.35;;
41685;SDS011;27370;42.764;23.432;2023-11-22T11:13:38;40.15;;;30.80;;
41685;SDS011;27370;42.764;23.432;2023-11-22T11:16:05;38.38;;;27.80;;
41685;SDS011;27370;42.764;23.432;2023-11-22T11:18:31;36.88;;;27.23;;
41685;SDS011;27370;42.764;23.432;2023-11-22T11:20:58;37.92;;;28.30;;
41685;SDS011;27370;42.764;23.432;2023-11-22T11:23:26;36.95;;;28.50;;
41685;SDS011;27370;42.764;23.432;2023-11-22T11:25:53;40.35;;;28.02;;
41685;SDS011;27370;42.764;23.432;2023-11-22T11:28:20;35.75;;;26.42;;
41685;SDS011;27370;42.764;23.432;2023-11-22T11:30:49;34.15;;;25.67;;
41685;SDS011;27370;42.764;23.432;2023-11-22T11:33:17;39.17;;;26.63;;
41685;SDS011;27370;42.764;23.432;2023-11-22T11:35:46;34.08;;;25.65;;
41685;SDS011;27370;42.764;23.432;2023-11-22T11:38:19;35.80;;;28.52;;
41685;SDS011;27370;42.764;23.432;2023-11-22T11:40:46;33.40;;;23.63;;
41685;SDS011;27370;42.764;23.432;2023-11-22T11:43:13;32.95;;;25.88;;
41685;SDS011;27370;42.764;23.432;2023-11-22T11:45:39;34.13;;;24.70;;
41685;SDS011;27370;42.764;23.432;2023-11-22T11:48:11;31.23;;;23.45;;
41685;SDS011;27370;42.764;23.432;2023-11-22T11:50:39;30.92;;;23.73;;
41685;SDS011;27370;42.764;23.432;2023-11-22T11:53:04;36.13;;;25.73;;
41685;SDS011;27370;42.764;23.432;2023-11-22T11:55:30;28.73;;;22.05;;
41685;SDS011;27370;42.764;23.432;2023-11-22T11:57:56;30.42;;;23.00;;
41685;SDS011;27370;42.764;23.432;2023-11-22T12:00:22;31.45;;;24.15;;
41685;SDS011;27370;42.764;23.432;2023-11-22T12:02:50;32.17;;;24.45;;
41685;SDS011;27370;42.764;23.432;2023-11-22T12:05:18;32.08;;;23.02;;
41685;SDS011;27370;42.764;23.432;2023-11-22T12:07:45;31.15;;;22.55;;
41685;SDS011;27370;42.764;23.432;2023-11-22T12:10:11;33.13;;;23.38;;
41685;SDS011;27370;42.764;23.432;2023-11-22T12:12:37;28.85;;;21.40;;
41685;SDS011;27370;42.764;23.432;2023-11-22T12:15:04;31.63;;;23.30;;
41685;SDS011;27370;42.764;23.432;2023-11-22T12:17:31;30.75;;;23.35;;
41685;SDS011;27370;42.764;23.432;2023-11-22T12:20:13;33.63;;;25.15;;
41685;SDS011;27370;42.764;23.432;2023-11-22T12:22:42;36.03;;;25.10;;
41685;SDS011;27370;42.764;23.432;2023-11-22T12:25:12;35.85;;;26.42;;
41685;SDS011;27370;42.764;23.432;2023-11-22T12:27:39;37.15;;;27.05;;
41685;SDS011;27370;42.764;23.432;2023-11-22T12:30:09;37.13;;;27.70;;
41685;SDS011;27370;42.764;23.432;2023-11-22T12:32:53;35.88;;;25.73;;
41685;SDS011;27370;42.764;23.432;2023-11-22T12:35:21;33.22;;;25.05;;
41685;SDS011;27370;42.764;23.432;2023-11-22T12:37:48;30.58;;;25.02;;
41685;SDS011;27370;42.764;23.432;2023-11-22T12:40:14;37.15;;;30.13;;
41685;SDS011;27370;42.764;23.432;2023-11-22T12:42:51;39.78;;;29.38;;
41685;SDS011;27370;42.764;23.432;2023-11-22T12:45:21;40.17;;;29.80;;
41685;SDS011;27370;42.764;23.432;2023-11-22T12:47:53;41.50;;;30.50;;
41685;SDS011;27370;42.764;23.432;2023-11-22T12:53:15;37.90;;;29.27;;
41685;SDS011;27370;42.764;23.432;2023-11-22T12:55:41;37.95;;;31.45;;
41685;SDS011;27370;42.764;23.432;2023-11-22T12:58:08;40.08;;;30.92;;
41685;SDS011;27370;42.764;23.432;2023-11-22T13:00:34;44.70;;;35.63;;
41685;SDS011;27370;42.764;23.432;2023-11-22T13:03:00;36.45;;;28.88;;
41685;SDS011;27370;42.764;23.432;2023-11-22T13:05:26;39.67;;;27.98;;
41685;SDS011;27370;42.764;23.432;2023-11-22T13:07:52;31.38;;;25.23;;
41685;SDS011;27370;42.764;23.432;2023-11-22T13:10:21;32.53;;;24.85;;
41685;SDS011;27370;42.764;23.432;2023-11-22T13:12:54;32.53;;;24.48;;
41685;SDS011;27370;42.764;23.432;2023-11-22T13:15:20;29.90;;;22.17;;
41685;SDS011;27370;42.764;23.432;2023-11-22T13:17:49;30.17;;;23.47;;
41685;SDS011;27370;42.764;23.432;2023-11-22T13:20:16;30.52;;;24.35;;
41685;SDS011;27370;42.764;23.432;2023-11-22T13:22:41;33.03;;;24.90;;
41685;SDS011;27370;42.764;23.432;2023-11-22T13:25:08;33.38;;;25.77;;
41685;SDS011;27370;42.764;23.432;2023-11-22T13:27:36;33.65;;;25.70;;
41685;SDS011;27370;42.764;23.432;2023-11-22T13:30:02;34.95;;;25.40;;
41685;SDS011;27370;42.764;23.432;2023-11-22T13:32:30;34.80;;;25.75;;
41685;SDS011;27370;42.764;23.432;2023-11-22T13:34:57;35.67;;;27.92;;
41685;SDS011;27370;42.764;23.432;2023-11-22T13:37:26;35.20;;;26.10;;
41685;SDS011;27370;42.764;23.432;2023-11-22T13:39:55;32.55;;;24.50;;
41685;SDS011;27370;42.764;23.432;2023-11-22T13:42:20;35.88;;;26.45;;
41685;SDS011;27370;42.764;23.432;2023-11-22T13:44:46;30.40;;;23.85;;
41685;SDS011;27370;42.764;23.432;2023-11-22T13:47:12;36.28;;;23.85;;
41685;SDS011;27370;42.764;23.432;2023-11-22T13:49:39;33.22;;;25.67;;
41685;SDS011;27370;42.764;23.432;2023-11-22T13:52:05;36.28;;;29.05;;
41685;SDS011;27370;42.764;23.432;2023-11-22T13:54:31;38.35;;;28.08;;
41685;SDS011;27370;42.764;23.432;2023-11-22T13:56:59;37.75;;;29.30;;
41685;SDS011;27370;42.764;23.432;2023-11-22T13:59:24;39.63;;;29.60;;
41685;SDS011;27370;42.764;23.432;2023-11-22T14:01:51;37.13;;;27.65;;
41685;SDS011;27370;42.764;23.432;2023-11-22T14:04:17;39.20;;;28.05;;
41685;SDS011;27370;42.764;23.432;2023-11-22T14:06:42;38.92;;;30.25;;
41685;SDS011;27370;42.764;23.432;2023-11-22T14:09:08;40.28;;;29.20;;
41685;SDS011;27370;42.764;23.432;2023-11-22T14:11:34;36.63;;;27.45;;
41685;SDS011;27370;42.764;23.432;2023-11-22T14:14:02;37.35;;;28.80;;
41685;SDS011;27370;42.764;23.432;2023-11-22T14:16:29;36.22;;;27.75;;